createdAt,value
2022-08-07T00:01:44.755Z,55.61
2022-08-07T00:04:15.819Z,55.38
2022-08-07T00:06:51.601Z,55.99
2022-08-07T00:09:22.836Z,56.48
2022-08-07T00:11:56.134Z,57.13
2022-08-07T00:14:31.396Z,58.86
2022-08-07T00:17:02.525Z,58.59
2022-08-07T00:20:00.156Z,58.87
2022-08-07T00:22:24.875Z,58.87
2022-08-07T00:25:16.481Z,59.13
2022-08-07T00:27:52.609Z,57.94
2022-08-07T00:30:27.267Z,58.20
2022-08-07T00:32:58.241Z,58.28
2022-08-07T00:35:29.886Z,58.22
2022-08-07T00:38:00.275Z,58.33
2022-08-07T00:40:39.837Z,57.97
2022-08-07T00:44:01.714Z,57.41
2022-08-07T00:46:03.030Z,57.31
2022-08-07T00:48:31.782Z,57.31
2022-08-07T00:51:03.000Z,57.29
2022-08-07T00:53:39.387Z,57.25
2022-08-07T00:56:19.384Z,56.82
2022-08-07T00:58:49.850Z,56.32
2022-08-07T01:01:20.705Z,56.56
2022-08-07T01:03:55.639Z,56.71
2022-08-07T01:06:29.502Z,56.88
2022-08-07T01:09:01.185Z,56.70
2022-08-07T01:12:10.211Z,56.44
2022-08-07T01:14:28.416Z,56.79
2022-08-07T01:16:59.379Z,57.07
2022-08-07T01:19:32.540Z,57.46
2022-08-07T01:22:08.808Z,57.07
2022-08-07T01:24:42.288Z,57.02
2022-08-07T01:27:19.864Z,57.39
2022-08-07T01:29:50.797Z,57.19
2022-08-07T01:32:22.468Z,57.18
2022-08-07T01:34:54.807Z,57.30
2022-08-07T01:37:24.716Z,57.56
2022-08-07T01:40:00.337Z,57.58
2022-08-07T01:42:40.180Z,57.75
2022-08-07T01:45:36.212Z,58.50
2022-08-07T01:48:29.897Z,58.62
2022-08-07T01:51:24.340Z,59.13
2022-08-07T01:54:12.206Z,59.39
2022-08-07T01:56:51.470Z,59.60
2022-08-07T01:59:47.321Z,59.80
2022-08-07T02:03:18.012Z,60.17
2022-08-07T02:05:48.267Z,60.25
2022-08-07T02:08:28.287Z,60.27
2022-08-07T02:11:00.655Z,60.37
2022-08-07T02:13:56.637Z,60.43
2022-08-07T02:16:28.634Z,60.35
2022-08-07T02:20:06.593Z,61.05
2022-08-07T02:21:59.855Z,61.13
2022-08-07T02:24:31.972Z,61.84
2022-08-07T02:27:03.323Z,62.08
2022-08-07T02:29:43.340Z,62.14
2022-08-07T02:32:23.218Z,62.25
2022-08-07T02:34:53.851Z,62.41
2022-08-07T02:37:26.837Z,62.21
2022-08-07T02:40:02.561Z,62.93
2022-08-07T02:42:48.006Z,63.15
2022-08-07T02:46:00.804Z,63.44
2022-08-07T02:48:10.117Z,63.77
2022-08-07T02:50:48.794Z,63.88
2022-08-07T02:53:27.374Z,64.02
2022-08-07T02:56:02.591Z,64.36
2022-08-07T02:58:36.049Z,64.34
2022-08-07T03:01:19.095Z,64.60
2022-08-07T03:04:03.450Z,65.02
2022-08-07T03:06:37.386Z,64.93
2022-08-07T03:09:11.360Z,64.53
2022-08-07T03:11:52.249Z,64.62
2022-08-07T03:14:28.855Z,64.70
2022-08-07T03:16:58.370Z,64.76
2022-08-07T03:19:29.098Z,64.71
2022-08-07T03:22:07.407Z,65.38
2022-08-07T03:24:48.800Z,65.70
2022-08-07T03:27:30.355Z,65.84
2022-08-07T03:30:03.793Z,65.87
2022-08-07T03:32:48.910Z,66.17
2022-08-07T03:35:26.245Z,66.56
2022-08-07T03:38:01.948Z,66.65
2022-08-07T03:40:36.226Z,66.81
2022-08-07T03:43:13.706Z,66.80
2022-08-07T03:45:47.887Z,66.86
2022-08-07T03:48:21.365Z,66.76
2022-08-07T03:50:52.157Z,66.71
2022-08-07T03:54:01.883Z,66.58
2022-08-07T03:56:32.597Z,66.58
2022-08-07T03:59:09.518Z,66.17
2022-08-07T04:01:43.312Z,65.92
2022-08-07T04:04:19.314Z,65.78
2022-08-07T04:06:53.062Z,65.34
2022-08-07T04:09:24.848Z,65.60
2022-08-07T04:12:25.003Z,65.71
2022-08-07T04:14:47.733Z,65.26
2022-08-07T04:17:21.512Z,65.06
2022-08-07T04:19:55.407Z,65.01
2022-08-07T04:22:29.650Z,64.78
2022-08-07T04:25:11.900Z,64.72
2022-08-07T04:27:44.278Z,64.56
2022-08-07T04:30:35.474Z,64.34
2022-08-07T04:33:20.277Z,63.97
2022-08-07T04:35:53.933Z,63.75
2022-08-07T04:38:28.382Z,63.62
2022-08-07T04:40:58.299Z,63.42
2022-08-07T04:44:12.082Z,63.21
2022-08-07T04:47:04.947Z,63.00
2022-08-07T04:49:38.784Z,62.50
2022-08-07T04:52:27.599Z,62.13
2022-08-07T04:55:14.856Z,61.49
2022-08-07T04:58:24.301Z,61.24
2022-08-07T05:01:30.060Z,61.15
2022-08-07T05:04:34.121Z,60.76
2022-08-07T05:07:44.250Z,60.47
2022-08-07T05:10:29.414Z,60.02
2022-08-07T05:13:09.786Z,59.31
2022-08-07T05:15:51.220Z,58.79
2022-08-07T05:18:35.673Z,58.22
2022-08-07T05:21:06.328Z,57.68
2022-08-07T05:23:47.623Z,57.42
2022-08-07T05:26:24.177Z,56.83
2022-08-07T05:29:04.237Z,56.58
2022-08-07T05:31:38.718Z,55.95
2022-08-07T05:34:15.653Z,55.26
2022-08-07T05:36:52.805Z,54.56
2022-08-07T05:40:16.858Z,53.56
2022-08-07T05:42:34.668Z,53.11
2022-08-07T05:45:25.808Z,52.44
2022-08-07T05:48:03.956Z,52.22
2022-08-07T05:51:10.719Z,51.67
2022-08-07T05:54:13.063Z,51.28
2022-08-07T05:56:30.211Z,50.57
2022-08-07T05:59:02.758Z,49.93
2022-08-07T06:01:35.905Z,49.08
2022-08-07T06:04:08.591Z,47.92
2022-08-07T06:06:46.303Z,47.72
2022-08-07T06:09:17.625Z,46.91
2022-08-07T06:11:48.989Z,46.71
2022-08-07T06:14:21.179Z,45.91
2022-08-07T06:16:56.171Z,44.43
2022-08-07T06:19:52.051Z,44.79
2022-08-07T06:22:38.901Z,44.92
2022-08-07T06:25:22.708Z,44.29
2022-08-07T06:28:01.610Z,43.95
2022-08-07T06:30:37.449Z,43.04
2022-08-07T06:33:16.760Z,42.77
2022-08-07T06:36:12.122Z,42.45
2022-08-07T06:38:58.635Z,42.03
2022-08-07T06:45:44.260Z,40.81
2022-08-07T06:48:13.607Z,39.75
2022-08-07T06:50:48.812Z,39.49
2022-08-07T06:54:11.988Z,39.32
2022-08-07T06:56:14.828Z,38.34
2022-08-07T07:00:14.657Z,38.10
2022-08-07T07:01:43.690Z,37.82
2022-08-07T07:04:32.902Z,37.66
2022-08-07T07:07:10.423Z,35.93
2022-08-07T07:09:50.862Z,35.77
2022-08-07T07:12:41.861Z,36.09
2022-08-07T07:15:35.877Z,36.28
2022-08-07T07:18:47.381Z,35.54
2022-08-07T07:21:13.541Z,35.63
2022-08-07T07:24:39.426Z,33.55
2022-08-07T07:27:15.442Z,34.20
2022-08-07T07:30:09.277Z,34.32
2022-08-07T07:32:40.606Z,34.09
2022-08-07T07:35:12.968Z,33.76
2022-08-07T07:37:49.459Z,33.51
2022-08-07T07:40:28.659Z,33.50
2022-08-07T07:43:11.626Z,33.00
2022-08-07T07:46:37.328Z,31.96
2022-08-07T07:50:35.390Z,31.32
2022-08-07T07:52:11.061Z,31.22
2022-08-07T07:54:44.287Z,31.00
2022-08-07T07:57:52.459Z,30.88
2022-08-07T08:00:15.072Z,31.08
2022-08-07T08:03:05.437Z,31.10
2022-08-07T08:05:50.603Z,30.14
2022-08-07T08:08:34.764Z,30.48
2022-08-07T08:11:08.625Z,30.37
2022-08-07T08:13:54.660Z,30.23
2022-08-07T08:16:38.969Z,30.72
2022-08-07T08:20:18.852Z,30.44
2022-08-07T08:22:19.936Z,29.86
2022-08-07T08:25:24.683Z,29.09
2022-08-07T08:28:06.127Z,28.17
2022-08-07T08:30:51.431Z,27.95
2022-08-07T08:33:28.811Z,27.88
2022-08-07T08:36:03.668Z,28.25
2022-08-07T08:38:41.106Z,28.37
2022-08-07T08:41:31.533Z,28.18
2022-08-07T08:44:45.697Z,27.20
2022-08-07T08:47:52.474Z,26.96
2022-08-07T08:50:34.995Z,26.17
2022-08-07T08:53:59.967Z,26.18
2022-08-07T08:56:36.402Z,25.64
2022-08-07T08:59:50.460Z,26.56
2022-08-07T09:02:37.573Z,26.55
2022-08-07T09:05:37.457Z,26.54
2022-08-07T09:08:33.813Z,25.99
2022-08-07T09:11:24.208Z,26.22
2022-08-07T09:18:30.394Z,25.18
2022-08-07T09:21:33.949Z,24.89
2022-08-07T09:30:03.470Z,25.42
2022-08-07T09:31:39.001Z,25.75
2022-08-07T09:38:54.849Z,24.37
2022-08-07T09:41:43.259Z,24.69
2022-08-07T09:44:32.991Z,24.68
2022-08-07T09:48:02.968Z,24.28
2022-08-07T09:52:09.295Z,24.58
2022-08-07T09:55:16.994Z,24.83
2022-08-07T09:58:36.355Z,24.35
2022-08-07T10:06:00.096Z,24.72
2022-08-07T10:08:51.755Z,24.90
2022-08-07T10:12:11.778Z,24.62
2022-08-07T10:35:55.183Z,22.38
2022-08-07T10:38:51.211Z,23.30
2022-08-07T10:41:53.835Z,24.18
2022-08-07T10:49:49.537Z,25.77
2022-08-07T10:56:49.410Z,26.15
2022-08-07T10:59:47.330Z,26.28
2022-08-07T11:02:37.980Z,25.28
2022-08-07T11:05:50.357Z,24.54
2022-08-07T11:08:49.568Z,24.47
2022-08-07T11:12:07.406Z,23.14
2022-08-07T11:15:00.420Z,23.02
2022-08-07T11:38:12.437Z,22.92
2022-08-07T11:45:53.288Z,22.35
2022-08-07T11:48:44.180Z,21.96
2022-08-07T11:51:53.353Z,22.18
2022-08-07T11:54:22.175Z,22.81
2022-08-07T11:57:59.971Z,22.47
2022-08-07T12:00:41.665Z,22.28
2022-08-07T12:04:07.456Z,22.62
2022-08-07T12:06:51.468Z,22.65
2022-08-07T12:09:34.400Z,22.94
2022-08-07T12:12:11.105Z,22.74
2022-08-07T12:14:51.437Z,22.06
2022-08-07T12:17:58.583Z,22.35
2022-08-07T12:20:36.544Z,22.04
2022-08-07T12:23:37.251Z,22.54
2022-08-07T12:26:30.885Z,21.34
2022-08-07T12:29:38.204Z,21.26
2022-08-07T12:32:03.771Z,21.61
2022-08-07T12:34:37.072Z,21.43
2022-08-07T12:37:17.018Z,21.64
2022-08-07T12:39:55.325Z,21.59
2022-08-07T12:42:28.613Z,21.75
2022-08-07T12:45:27.657Z,22.21
2022-08-07T12:48:28.317Z,22.42
2022-08-07T12:51:13.257Z,22.17
2022-08-07T12:54:36.332Z,22.19
2022-08-07T12:56:50.915Z,23.03
2022-08-07T12:59:30.484Z,22.56
2022-08-07T13:02:41.645Z,22.55
2022-08-07T13:06:02.460Z,22.50
2022-08-07T13:08:32.917Z,22.59
2022-08-07T13:11:07.463Z,22.49
2022-08-07T13:14:02.355Z,21.90
2022-08-07T13:16:39.624Z,21.54
2022-08-07T13:19:46.203Z,21.33
2022-08-07T13:22:31.296Z,20.74
2022-08-07T13:25:29.243Z,21.42
2022-08-07T13:28:10.679Z,21.61
2022-08-07T13:31:13.225Z,21.47
2022-08-07T13:34:31.337Z,21.76
2022-08-07T13:36:50.690Z,21.54
2022-08-07T13:40:32.801Z,21.01
2022-08-07T13:42:25.884Z,21.31
2022-08-07T13:46:06.714Z,21.28
2022-08-07T13:48:06.327Z,20.84
2022-08-07T13:50:44.220Z,20.43
2022-08-07T13:53:21.782Z,19.97
2022-08-07T13:55:54.771Z,20.50
2022-08-07T13:58:54.219Z,20.91
2022-08-07T14:01:27.958Z,22.15
2022-08-07T14:04:16.717Z,22.72
2022-08-07T14:06:52.546Z,23.48
2022-08-07T14:10:02.333Z,23.73
2022-08-07T14:12:27.606Z,24.22
2022-08-07T14:15:05.009Z,24.48
2022-08-07T14:18:24.113Z,24.58
2022-08-07T14:20:41.785Z,25.17
2022-08-07T14:23:31.449Z,25.22
2022-08-07T14:26:28.185Z,26.41
2022-08-07T14:29:08.837Z,27.51
2022-08-07T14:31:42.773Z,28.93
2022-08-07T14:34:29.552Z,29.55
2022-08-07T14:37:03.384Z,29.99
2022-08-07T14:40:16.827Z,30.34
2022-08-07T14:42:32.382Z,30.96
2022-08-07T14:45:21.504Z,31.02
2022-08-07T14:47:52.909Z,31.18
2022-08-07T14:50:28.910Z,31.56
2022-08-07T14:53:09.771Z,31.33
2022-08-07T14:55:55.892Z,31.53
2022-08-07T14:58:34.331Z,31.49
2022-08-07T15:01:22.509Z,31.21
2022-08-07T15:03:53.658Z,31.23
2022-08-07T15:06:23.523Z,31.18
2022-08-07T15:08:55.769Z,31.28
2022-08-07T15:11:54.371Z,31.45
2022-08-07T15:14:22.316Z,31.66
2022-08-07T15:17:04.308Z,31.62
2022-08-07T15:25:39.728Z,32.62
2022-08-07T15:28:34.749Z,32.52
2022-08-07T15:31:06.710Z,32.69
2022-08-07T15:34:14.998Z,33.13
2022-08-07T15:37:03.683Z,33.66
2022-08-07T15:39:57.700Z,33.74
2022-08-07T15:45:55.761Z,33.92
2022-08-07T15:49:13.330Z,34.08
2022-08-07T15:54:34.141Z,34.77
2022-08-07T15:57:06.056Z,34.75
2022-08-07T15:59:44.166Z,34.91
2022-08-07T16:02:55.003Z,34.93
2022-08-07T16:05:31.229Z,35.48
2022-08-07T16:08:31.007Z,35.80
2022-08-07T16:11:26.781Z,36.11
2022-08-07T16:14:40.656Z,36.31
2022-08-07T16:18:02.526Z,36.38
2022-08-07T16:21:43.788Z,38.26
2022-08-07T16:24:33.723Z,38.97
2022-08-07T16:27:39.814Z,41.21
2022-08-07T16:30:30.081Z,42.52
2022-08-07T16:34:02.799Z,43.36
2022-08-07T16:37:00.148Z,43.88
2022-08-07T16:39:49.724Z,44.65
2022-08-07T16:42:36.712Z,44.86
2022-08-07T16:46:40.305Z,45.37
2022-08-07T16:50:13.849Z,45.56
2022-08-07T16:52:51.580Z,45.82
2022-08-07T16:55:08.513Z,46.56
2022-08-07T16:58:04.065Z,46.66
2022-08-07T17:00:44.703Z,47.02
2022-08-07T17:04:00.137Z,46.65
2022-08-07T17:07:17.931Z,47.22
2022-08-07T17:10:54.318Z,47.66
2022-08-07T17:14:17.511Z,47.24
2022-08-07T17:16:56.975Z,47.28
2022-08-07T17:20:00.513Z,47.33
2022-08-07T17:23:13.175Z,47.17
2022-08-07T17:26:22.526Z,47.02
2022-08-07T17:28:52.698Z,47.16
2022-08-07T17:32:02.863Z,47.31
2022-08-07T17:35:32.775Z,47.17
2022-08-07T17:42:04.401Z,47.29
2022-08-07T17:44:33.980Z,47.36
2022-08-07T17:47:41.863Z,47.77
2022-08-07T17:50:19.637Z,47.60
2022-08-07T17:53:09.196Z,47.54
2022-08-07T17:56:11.149Z,47.88
2022-08-07T17:59:16.916Z,47.81
2022-08-07T18:02:15.698Z,47.85
2022-08-07T18:05:21.687Z,47.66
2022-08-07T18:08:24.343Z,47.77
2022-08-07T18:12:16.319Z,47.92
2022-08-07T18:14:23.843Z,48.18
2022-08-07T18:17:00.249Z,48.33
2022-08-07T18:21:08.667Z,48.20
2022-08-07T18:22:57.904Z,48.17
2022-08-07T18:25:40.389Z,48.10
2022-08-07T18:32:08.564Z,48.38
2022-08-07T18:35:08.001Z,48.45
2022-08-07T18:38:56.013Z,48.16
2022-08-07T18:41:10.022Z,48.18
2022-08-07T18:44:00.547Z,48.28
2022-08-07T18:46:47.885Z,48.21
2022-08-07T18:50:30.245Z,48.13
2022-08-07T18:53:12.439Z,48.51
2022-08-07T18:56:30.896Z,48.54
2022-08-07T18:59:47.115Z,48.63
2022-08-07T19:02:32.333Z,48.86
2022-08-07T19:05:15.895Z,48.95
2022-08-07T19:08:06.629Z,49.25
2022-08-07T19:10:51.835Z,49.30
2022-08-07T19:13:37.794Z,49.35
2022-08-07T19:17:08.264Z,49.42
2022-08-07T19:20:29.817Z,49.58
2022-08-07T19:23:17.975Z,49.45
2022-08-07T19:26:23.263Z,49.47
2022-08-07T19:30:57.967Z,49.68
2022-08-07T19:32:10.347Z,49.80
2022-08-07T19:34:47.806Z,49.63
2022-08-07T19:37:22.241Z,49.43
2022-08-07T19:40:05.383Z,49.29
2022-08-07T19:42:45.751Z,51.30
2022-08-07T19:46:05.909Z,54.93
2022-08-07T19:48:25.442Z,57.09
2022-08-07T19:50:54.726Z,56.83
2022-08-07T19:54:31.809Z,56.69
2022-08-07T19:56:58.528Z,56.97
2022-08-07T19:59:41.417Z,58.88
2022-08-07T20:02:19.666Z,63.21
2022-08-07T20:04:56.103Z,60.49
2022-08-07T20:07:46.381Z,62.73
2022-08-07T20:10:35.781Z,65.66
2022-08-07T20:13:22.846Z,66.30
2022-08-07T20:15:57.764Z,66.48
2022-08-07T20:18:32.607Z,66.88
2022-08-07T20:21:22.027Z,67.28
2022-08-07T20:24:00.470Z,66.63
2022-08-07T20:26:44.939Z,66.78
2022-08-07T20:29:47.752Z,66.48
2022-08-07T20:32:22.710Z,66.12
2022-08-07T20:35:01.282Z,66.74
2022-08-07T20:37:55.790Z,66.15
2022-08-07T20:40:34.339Z,67.18
2022-08-07T20:43:09.317Z,67.19
2022-08-07T20:46:27.636Z,66.21
2022-08-07T20:48:34.455Z,65.57
2022-08-07T20:51:09.725Z,65.15
2022-08-07T20:54:04.335Z,65.11
2022-08-07T20:56:32.263Z,65.40
2022-08-07T20:59:05.333Z,64.82
2022-08-07T21:01:45.446Z,65.06
2022-08-07T21:04:22.557Z,65.54
2022-08-07T21:06:57.438Z,65.23
2022-08-07T21:09:51.857Z,64.80
2022-08-07T21:12:28.811Z,65.75
2022-08-07T21:15:00.915Z,66.06
2022-08-07T21:18:20.536Z,66.64
2022-08-07T21:20:30.400Z,66.94
2022-08-07T21:23:08.438Z,66.95
2022-08-07T21:26:03.229Z,66.50
2022-08-07T21:28:58.225Z,65.74
2022-08-07T21:32:46.869Z,65.99
2022-08-07T21:35:02.835Z,66.27
2022-08-07T21:37:31.642Z,67.00
2022-08-07T21:40:36.066Z,66.38
2022-08-07T21:43:55.213Z,64.71
2022-08-07T21:46:31.823Z,64.51
2022-08-07T21:49:01.350Z,65.02
2022-08-07T21:51:32.201Z,64.80
2022-08-07T21:54:06.825Z,65.23
2022-08-07T21:56:48.074Z,65.79
2022-08-07T22:00:02.877Z,65.98
2022-08-07T22:05:52.137Z,66.77
2022-08-07T22:08:24.828Z,66.68
2022-08-07T22:10:59.749Z,66.70
2022-08-07T22:13:51.261Z,67.18
2022-08-07T22:17:00.174Z,67.42
2022-08-07T22:20:23.771Z,67.36
2022-08-07T22:29:49.616Z,67.86
2022-08-07T22:33:01.223Z,67.27
2022-08-07T22:35:51.955Z,67.89
2022-08-07T22:38:26.551Z,68.42
2022-08-07T22:42:02.484Z,68.52
2022-08-07T22:44:22.809Z,67.40
2022-08-07T22:47:06.421Z,66.73
2022-08-07T22:50:08.338Z,66.29
2022-08-07T22:53:03.775Z,66.17
2022-08-07T22:55:54.627Z,66.17
2022-08-07T22:58:42.361Z,66.62
2022-08-07T23:01:49.724Z,66.38
2022-08-07T23:06:04.974Z,66.88
2022-08-07T23:08:31.481Z,66.98
2022-08-07T23:11:10.298Z,66.53
2022-08-07T23:14:16.072Z,66.01
2022-08-07T23:17:15.714Z,65.64
2022-08-07T23:20:40.269Z,65.62
2022-08-07T23:24:06.992Z,67.65
2022-08-07T23:26:25.326Z,66.33
2022-08-07T23:29:43.389Z,65.93
2022-08-07T23:34:18.693Z,65.91
2022-08-07T23:35:37.353Z,66.06
2022-08-07T23:39:22.159Z,66.19
2022-08-07T23:42:05.797Z,65.86
2022-08-07T23:44:46.617Z,65.98
2022-08-07T23:47:49.382Z,66.12
2022-08-07T23:50:29.778Z,66.04
2022-08-07T23:53:51.854Z,66.46
2022-08-07T23:56:37.869Z,66.94
